Time;durP1;ratioP1;P1;durP2;ratioP2;P2;SDS_P1;SDS_P2;PMS_P1;PMS_P2;Temp;Humidity;BMP_temperature;BMP_pressure;BME280_temperature;BME280_humidity;BME280_pressure;Samples;Min_cycle;Max_cycle;Signal;HPM_P1;HPM_P2
2022/11/18 00:02:13;;;;;;;11.27;6.68;;;8.50;99.90;;;;;;5073362;28;20522;-73
2022/11/18 00:04:39;;;;;;;13.30;6.63;;;8.50;99.90;;;;;;5072810;28;20040;-74
2022/11/18 00:07:04;;;;;;;11.52;6.60;;;8.40;99.90;;;;;;5072899;28;20037;-74
2022/11/18 00:09:30;;;;;;;12.95;7.18;;;8.40;99.90;;;;;;5072776;28;20354;-73
2022/11/18 00:14:40;;;;;;;15.20;7.32;;;8.30;99.90;;;;;;5072598;28;20055;-73
2022/11/18 00:17:08;;;;;;;14.18;7.40;;;8.30;99.90;;;;;;5072785;28;20445;-72
2022/11/18 00:19:36;;;;;;;13.43;7.75;;;8.30;99.90;;;;;;5055190;28;20024;-72
2022/11/18 00:22:02;;;;;;;11.48;6.68;;;8.30;99.90;;;;;;5073096;28;20116;-72
2022/11/18 00:24:28;;;;;;;11.93;7.50;;;8.30;99.90;;;;;;5072932;28;20020;-73
2022/11/18 00:26:54;;;;;;;11.75;7.28;;;8.30;99.90;;;;;;5072519;28;20070;-72
2022/11/18 00:29:21;;;;;;;12.80;7.32;;;8.30;99.90;;;;;;5072709;28;20478;-72
2022/11/18 00:31:47;;;;;;;14.05;6.95;;;8.30;99.90;;;;;;5072591;28;20028;-72
2022/11/18 00:34:15;;;;;;;13.82;7.43;;;8.40;99.90;;;;;;5072413;28;20032;-73
2022/11/18 00:36:42;;;;;;;8.48;5.72;;;8.40;99.90;;;;;;5072433;28;20391;-74
2022/11/18 00:39:10;;;;;;;10.13;6.13;;;8.40;99.90;;;;;;5072680;28;20050;-74
2022/11/18 00:44:20;;;;;;;10.95;6.30;;;8.50;99.90;;;;;;5052179;28;19944;-70
2022/11/18 00:46:45;;;;;;;10.05;5.97;;;8.40;99.90;;;;;;5052406;28;20443;-74
2022/11/18 00:49:11;;;;;;;9.82;5.78;;;8.30;99.90;;;;;;5052345;28;20093;-72
2022/11/18 00:51:37;;;;;;;9.48;5.72;;;8.30;99.90;;;;;;5052140;28;20036;-72
2022/11/18 00:54:03;;;;;;;9.38;5.60;;;8.20;99.90;;;;;;5051489;28;20336;-73
2022/11/18 00:56:29;;;;;;;11.82;5.40;;;8.30;99.90;;;;;;5052139;28;20029;-72
2022/11/18 00:58:54;;;;;;;9.10;4.50;;;8.30;99.90;;;;;;5052117;28;20033;-72
2022/11/18 01:01:20;;;;;;;11.20;5.50;;;8.40;99.90;;;;;;5052162;28;20031;-73
2022/11/18 01:03:46;;;;;;;8.77;5.05;;;8.30;99.90;;;;;;5051787;28;20033;-73
2022/11/18 01:06:11;;;;;;;9.10;5.40;;;8.30;99.90;;;;;;5052681;28;20021;-73
2022/11/18 01:08:37;;;;;;;6.53;4.70;;;8.30;99.90;;;;;;5051823;28;20040;-72
2022/11/18 01:13:51;;;;;;;8.55;5.07;;;8.30;99.90;;;;;;5051844;28;20130;-73
2022/11/18 01:16:19;;;;;;;7.80;5.20;;;8.30;99.90;;;;;;5050585;28;20115;-73
2022/11/18 01:18:45;;;;;;;8.73;5.40;;;8.30;99.90;;;;;;5051614;28;20409;-72
2022/11/18 01:21:11;;;;;;;8.50;5.68;;;8.30;99.90;;;;;;5052274;28;20021;-73
2022/11/18 01:23:37;;;;;;;8.73;5.05;;;8.30;99.90;;;;;;5051432;28;20028;-73
2022/11/18 01:26:05;;;;;;;8.82;4.82;;;8.30;99.90;;;;;;5050406;28;20079;-73
2022/11/18 01:28:30;;;;;;;10.82;5.07;;;8.20;99.90;;;;;;5051500;28;20029;-72
2022/11/18 01:31:06;;;;;;;10.77;5.05;;;8.30;99.90;;;;;;5051446;28;20113;-72
2022/11/18 01:33:32;;;;;;;7.82;5.47;;;8.20;99.90;;;;;;5051367;28;20055;-71
2022/11/18 01:35:58;;;;;;;10.77;5.57;;;8.30;99.90;;;;;;5051819;28;20021;-72
2022/11/18 01:38:23;;;;;;;10.27;5.40;;;8.30;99.90;;;;;;5050477;28;20090;-72
2022/11/18 01:40:49;;;;;;;11.90;5.93;;;8.40;99.90;;;;;;5051369;28;20057;-71
2022/11/18 01:43:18;;;;;;;8.05;5.05;;;8.30;99.90;;;;;;5063119;28;20044;-72
2022/11/18 01:45:46;;;;;;;9.07;5.05;;;8.30;99.90;;;;;;5070989;28;20357;-72
2022/11/18 01:48:25;;;;;;;10.82;5.57;;;8.40;99.90;;;;;;5070517;28;20048;-72
2022/11/18 01:50:56;;;;;;;8.73;5.15;;;8.30;99.90;;;;;;5053304;28;20137;-71
2022/11/18 01:53:34;;;;;;;9.00;5.55;;;8.30;99.90;;;;;;5071016;28;20283;-71
2022/11/18 01:56:02;;;;;;;;;;;8.30;99.90;;;;;;5053769;28;20051;-72
2022/11/18 01:58:35;;;;;;;10.90;5.22;;;8.30;99.90;;;;;;5070864;28;19916;-73
2022/11/18 02:01:03;;;;;;;10.43;5.30;;;8.30;99.90;;;;;;5070032;28;20028;-72
2022/11/18 02:03:28;;;;;;;9.73;5.57;;;8.30;99.90;;;;;;5070961;28;20052;-73
2022/11/18 02:05:55;;;;;;;11.38;6.18;;;8.30;99.90;;;;;;5071239;28;20048;-72
2022/11/18 02:08:22;;;;;;;11.05;5.97;;;8.30;99.90;;;;;;5070854;28;20056;-73
2022/11/18 02:10:47;;;;;;;13.93;5.75;;;8.30;99.90;;;;;;5070695;28;20033;-72
2022/11/18 02:13:14;;;;;;;10.45;5.90;;;8.30;99.90;;;;;;5070750;28;20112;-73
2022/11/18 02:15:42;;;;;;;8.40;5.70;;;8.30;99.90;;;;;;5070715;28;20081;-72
2022/11/18 02:18:11;;;;;;;9.40;5.43;;;8.30;99.90;;;;;;5071013;28;20021;-72
2022/11/18 02:20:45;;;;;;;10.95;5.90;;;8.30;99.90;;;;;;5053041;28;20060;-73
2022/11/18 02:23:22;;;;;;;8.60;5.85;;;8.30;99.90;;;;;;5070870;28;20098;-72
2022/11/18 02:26:10;;;;;;;11.45;5.75;;;8.30;99.90;;;;;;5070586;28;20389;-72
2022/11/18 02:28:39;;;;;;;11.05;5.85;;;8.30;99.90;;;;;;5070794;28;20462;-73
2022/11/18 02:31:24;;;;;;;9.73;6.18;;;8.40;99.90;;;;;;5070537;28;20029;-72
2022/11/18 02:34:03;;;;;;;8.73;5.13;;;8.30;99.90;;;;;;5070535;28;20055;-73
2022/11/18 02:36:58;;;;;;;8.57;5.18;;;8.40;99.90;;;;;;5084737;28;20024;-72
2022/11/18 02:39:31;;;;;;;9.10;5.28;;;8.40;99.90;;;;;;5072971;28;20537;-71
2022/11/18 02:42:02;;;;;;;9.63;5.72;;;8.30;99.90;;;;;;5090925;28;20048;-72
2022/11/18 02:44:29;;;;;;;7.72;5.03;;;8.40;99.90;;;;;;5090603;28;20040;-72
2022/11/18 02:47:00;;;;;;;10.10;5.40;;;8.40;99.90;;;;;;5090877;28;20387;-72
2022/11/18 02:49:36;;;;;;;7.40;4.72;;;8.30;99.90;;;;;;5092789;28;20025;-73
2022/11/18 02:52:03;;;;;;;10.48;5.25;;;8.20;99.90;;;;;;5076833;28;20332;-71
2022/11/18 02:54:30;;;;;;;6.57;4.72;;;8.20;99.90;;;;;;5094929;28;20292;-72
2022/11/18 02:56:56;;;;;;;11.20;5.22;;;8.20;99.90;;;;;;5095048;28;20063;-71
2022/11/18 02:59:22;;;;;;;7.07;5.05;;;8.10;99.90;;;;;;5094593;28;20494;-72
2022/11/18 03:01:48;;;;;;;8.25;4.97;;;8.10;99.90;;;;;;5094313;28;20048;-73
2022/11/18 03:04:16;;;;;;;9.18;5.45;;;8.10;99.90;;;;;;5094408;28;20028;-72
2022/11/18 03:07:11;;;;;;;8.57;5.50;;;8.10;99.90;;;;;;5076555;28;20024;-73
2022/11/18 03:09:41;;;;;;;10.00;5.90;;;8.00;99.90;;;;;;5090368;28;20036;-73
2022/11/18 03:12:29;;;;;;;10.88;5.72;;;8.00;99.90;;;;;;5077412;28;20323;-72
2022/11/18 03:15:30;;;;;;;9.68;5.97;;;8.00;99.90;;;;;;5094516;28;20040;-73
2022/11/18 03:18:21;;;;;;;10.32;5.97;;;8.00;99.90;;;;;;5094290;28;20377;-72
2022/11/18 03:20:54;;;;;;;11.55;6.72;;;7.90;99.90;;;;;;5076146;28;20115;-73
2022/11/18 03:23:40;;;;;;;13.05;7.20;;;7.90;99.90;;;;;;5094081;28;20032;-73
2022/11/18 03:26:15;;;;;;;13.32;7.45;;;7.90;99.90;;;;;;5094145;28;20056;-72
2022/11/18 03:29:14;;;;;;;13.77;7.65;;;7.80;99.90;;;;;;5093944;28;20319;-73
2022/11/18 03:31:51;;;;;;;12.00;7.03;;;7.90;99.90;;;;;;5093997;28;20032;-72
2022/11/18 03:34:24;;;;;;;11.83;7.13;;;7.80;99.90;;;;;;5076002;28;20047;-72
2022/11/18 03:36:54;;;;;;;13.05;6.55;;;7.90;99.90;;;;;;5076017;28;20052;-73
2022/11/18 03:39:22;;;;;;;13.60;7.20;;;7.90;99.90;;;;;;5094244;28;20035;-73
2022/11/18 03:41:50;;;;;;;;;;;7.90;99.90;;;;;;5094547;28;20036;-72
2022/11/18 03:44:21;;;;;;;11.88;6.63;;;8.00;99.90;;;;;;5075789;28;20272;-73
2022/11/18 03:47:03;;;;;;;13.70;7.15;;;7.90;99.90;;;;;;5093887;28;20059;-71
2022/11/18 03:49:33;;;;;;;12.07;7.20;;;8.00;99.90;;;;;;5093622;28;20076;-73
2022/11/18 03:52:09;;;;;;;12.32;7.10;;;7.90;99.90;;;;;;5093602;28;20028;-73
2022/11/18 03:54:37;;;;;;;15.23;8.38;;;7.80;99.90;;;;;;5093593;28;20035;-72
2022/11/18 03:57:08;;;;;;;;;;;7.70;99.90;;;;;;5094516;28;20111;-73
2022/11/18 03:59:47;;;;;;;13.88;7.90;;;7.80;99.90;;;;;;5093553;28;19908;-73
2022/11/18 04:02:16;;;;;;;16.63;8.30;;;7.60;99.90;;;;;;5092952;28;20119;-72
2022/11/18 04:04:46;;;;;;;15.88;8.98;;;7.60;99.90;;;;;;5075290;28;20120;-72
2022/11/18 04:07:26;;;;;;;15.35;8.63;;;7.60;99.90;;;;;;5093542;28;20020;-72
2022/11/18 04:10:12;;;;;;;17.05;8.93;;;7.60;99.90;;;;;;5075361;28;20028;-73
2022/11/18 04:12:43;;;;;;;19.08;9.55;;;7.50;99.90;;;;;;5093163;28;20066;-72
2022/11/18 04:15:10;;;;;;;19.35;10.02;;;7.50;99.90;;;;;;5093643;28;20023;-71
2022/11/18 04:17:36;;;;;;;18.58;9.73;;;7.60;99.90;;;;;;5093048;28;20042;-73
2022/11/18 04:20:02;;;;;;;21.75;9.85;;;7.50;99.90;;;;;;5093267;28;20422;-73
2022/11/18 04:22:27;;;;;;;20.10;10.10;;;7.50;99.90;;;;;;5093025;28;20040;-72
2022/11/18 04:24:53;;;;;;;17.65;8.85;;;7.50;99.90;;;;;;5092809;28;20043;-73
2022/11/18 04:27:18;;;;;;;18.95;9.60;;;7.50;99.90;;;;;;5093450;28;20388;-72
2022/11/18 04:29:44;;;;;;;17.65;9.20;;;7.60;99.90;;;;;;5093201;28;20032;-73
2022/11/18 04:32:10;;;;;;;20.42;9.57;;;7.60;99.90;;;;;;5092979;28;20035;-73
2022/11/18 04:34:35;;;;;;;22.42;9.80;;;7.50;99.90;;;;;;5092708;28;20111;-73
2022/11/18 04:37:01;;;;;;;19.63;9.00;;;7.50;99.90;;;;;;5092713;28;20038;-71
2022/11/18 04:39:27;;;;;;;18.15;9.70;;;7.50;99.90;;;;;;5093026;28;20038;-72
2022/11/18 04:41:55;;;;;;;17.08;9.30;;;7.40;99.90;;;;;;5092995;28;20028;-72
2022/11/18 04:44:29;;;;;;;21.25;9.63;;;7.40;99.90;;;;;;5092534;28;20097;-73
2022/11/18 04:46:57;;;;;;;17.90;9.50;;;7.30;99.90;;;;;;5092541;28;20581;-72
2022/11/18 04:49:24;;;;;;;19.92;9.85;;;7.30;99.90;;;;;;5074641;28;20032;-72
2022/11/18 04:51:50;;;;;;;17.52;9.70;;;7.30;99.90;;;;;;5074590;28;20269;-73
2022/11/18 04:54:17;;;;;;;21.23;10.27;;;7.30;99.90;;;;;;5074958;28;20024;-73
2022/11/18 04:56:43;;;;;;;24.23;10.70;;;7.30;99.90;;;;;;5092294;28;20035;-73
2022/11/18 04:59:10;;;;;;;20.10;9.77;;;7.40;99.90;;;;;;5092532;28;20488;-72
2022/11/18 05:01:35;;;;;;;19.55;10.00;;;7.40;99.90;;;;;;5092285;28;20060;-72
2022/11/18 05:04:03;;;;;;;20.15;10.80;;;7.30;99.90;;;;;;5074164;28;20063;-73
2022/11/18 05:06:29;;;;;;;20.60;10.30;;;7.40;99.90;;;;;;5092058;28;20036;-72
2022/11/18 05:08:57;;;;;;;23.77;10.88;;;7.40;99.90;;;;;;5092464;28;20027;-72
2022/11/18 05:14:08;;;;;;;20.30;9.77;;;7.40;99.90;;;;;;5092010;28;20353;-72
2022/11/18 05:16:33;;;;;;;20.80;10.77;;;7.30;99.90;;;;;;5092116;28;20028;-73
2022/11/18 05:19:01;;;;;;;23.25;11.52;;;7.30;99.90;;;;;;5073840;28;20036;-73
2022/11/18 05:21:26;;;;;;;21.38;11.00;;;7.30;99.90;;;;;;5091840;28;20360;-73
2022/11/18 05:23:52;;;;;;;25.27;11.88;;;7.20;99.90;;;;;;5092459;28;20032;-73
2022/11/18 05:26:18;;;;;;;25.13;12.57;;;7.20;99.90;;;;;;5091817;28;20480;-72
2022/11/18 05:28:43;;;;;;;23.08;11.63;;;7.20;99.90;;;;;;5073789;28;20028;-73
2022/11/18 05:31:12;;;;;;;23.65;11.70;;;7.10;99.90;;;;;;5091736;28;20047;-72
2022/11/18 05:33:38;;;;;;;25.27;11.32;;;7.20;99.90;;;;;;5091640;28;20059;-73
2022/11/18 05:36:09;;;;;;;25.70;11.95;;;7.20;99.90;;;;;;5092064;28;20438;-72
2022/11/18 05:38:36;;;;;;;25.30;12.77;;;7.10;99.90;;;;;;5091630;28;20032;-74
2022/11/18 05:41:02;;;;;;;23.40;11.32;;;7.20;99.90;;;;;;5091624;28;20040;-72
2022/11/18 05:43:29;;;;;;;22.58;11.30;;;7.10;99.90;;;;;;5091258;28;20051;-73
2022/11/18 05:45:54;;;;;;;26.17;11.68;;;7.10;99.90;;;;;;5073539;28;20443;-72
2022/11/18 05:48:21;;;;;;;25.92;12.75;;;7.10;99.90;;;;;;5091961;28;20350;-72
2022/11/18 05:50:48;;;;;;;25.45;12.02;;;7.10;99.90;;;;;;5091467;28;20028;-73
2022/11/18 05:53:15;;;;;;;25.58;13.13;;;7.10;99.90;;;;;;5091311;28;20028;-72
2022/11/18 05:56:07;;;;;;;23.70;11.90;;;7.20;99.90;;;;;;5073711;28;20032;-72
2022/11/18 05:58:33;;;;;;;24.25;11.88;;;7.20;99.90;;;;;;5091074;28;20032;-72
2022/11/18 06:01:04;;;;;;;23.92;11.88;;;7.20;99.90;;;;;;5091022;28;20039;-73
2022/11/18 06:03:32;;;;;;;31.75;13.77;;;7.20;99.90;;;;;;5091284;28;20024;-72
2022/11/18 06:06:01;;;;;;;26.25;12.55;;;7.20;99.90;;;;;;5091359;28;20039;-73
2022/11/18 06:08:32;;;;;;;24.92;13.05;;;7.20;99.90;;;;;;5090823;28;20072;-73
2022/11/18 06:10:58;;;;;;;24.17;12.52;;;7.20;99.90;;;;;;5090911;28;20039;-73
2022/11/18 06:13:35;;;;;;;29.10;14.13;;;7.20;99.90;;;;;;5073066;28;20295;-72
2022/11/18 06:16:02;;;;;;;26.58;12.68;;;7.10;99.90;;;;;;5091593;28;20113;-74
2022/11/18 06:18:30;;;;;;;26.27;13.43;;;7.10;99.90;;;;;;5091203;28;20453;-72
2022/11/18 06:21:03;;;;;;;25.35;13.20;;;7.10;99.90;;;;;;5073670;28;20317;-73
2022/11/18 06:23:33;;;;;;;29.60;14.50;;;7.20;99.90;;;;;;5091018;28;20465;-73
2022/11/18 06:25:59;;;;;;;27.00;13.82;;;7.20;99.90;;;;;;5090834;28;20063;-72
2022/11/18 06:28:25;;;;;;;29.08;14.07;;;7.20;99.90;;;;;;5090599;28;20048;-73
2022/11/18 06:30:51;;;;;;;26.58;13.65;;;7.10;99.90;;;;;;5090744;28;20107;-72
2022/11/18 06:33:17;;;;;;;28.50;14.18;;;7.10;99.90;;;;;;5091118;28;20114;-72
2022/11/18 06:35:43;;;;;;;31.52;14.55;;;7.10;99.90;;;;;;5090915;28;20090;-73
2022/11/18 06:38:08;;;;;;;29.60;13.63;;;7.10;99.90;;;;;;5090717;28;20032;-72
2022/11/18 06:40:36;;;;;;;28.60;13.90;;;7.00;99.90;;;;;;5090736;28;20426;-72
2022/11/18 06:48:41;;;;;;;33.78;15.90;;;6.90;99.90;;;;;;5090780;28;20043;-73
2022/11/18 06:51:07;;;;;;;29.85;15.40;;;6.90;99.90;;;;;;5072885;28;20024;-73
2022/11/18 06:53:33;;;;;;;38.33;15.77;;;6.90;99.90;;;;;;5090342;28;20334;-73
2022/11/18 06:56:12;;;;;;;29.95;15.55;;;6.90;99.90;;;;;;5072293;28;20036;-72
2022/11/18 06:58:37;;;;;;;33.70;15.70;;;7.00;99.90;;;;;;5090363;28;20036;-73
2022/11/18 07:01:20;;;;;;;29.45;14.88;;;7.00;99.90;;;;;;5072431;28;20032;-72
2022/11/18 07:03:46;;;;;;;34.42;15.77;;;7.00;99.90;;;;;;5090323;28;20039;-74
2022/11/18 07:06:15;;;;;;;31.80;15.95;;;7.00;99.90;;;;;;5090872;28;20515;-72
2022/11/18 07:08:41;;;;;;;34.15;16.27;;;6.90;99.90;;;;;;5090751;28;20036;-74
2022/11/18 07:11:11;;;;;;;32.55;16.15;;;6.90;99.90;;;;;;5090345;28;20042;-74
2022/11/18 07:13:37;;;;;;;34.80;16.67;;;6.90;99.90;;;;;;5090092;28;20124;-74
2022/11/18 07:16:08;;;;;;;36.35;15.57;;;6.80;99.90;;;;;;5072384;28;20123;-75
2022/11/18 07:18:36;;;;;;;31.13;15.68;;;6.80;99.90;;;;;;5072236;28;20112;-74
2022/11/18 07:21:06;;;;;;;;;;;6.80;99.90;;;;;;5091450;28;20101;-72
2022/11/18 07:23:32;;;;;;;36.78;15.82;;;6.90;99.90;;;;;;5090067;28;19969;-72
2022/11/18 07:25:58;;;;;;;38.30;16.40;;;6.90;99.90;;;;;;5089854;28;20329;-70
2022/11/18 07:28:25;;;;;;;36.33;17.13;;;6.80;99.90;;;;;;5090351;28;20119;-72
2022/11/18 07:30:51;;;;;;;35.13;16.50;;;6.80;99.90;;;;;;5090102;28;20059;-73
2022/11/18 07:33:17;;;;;;;36.90;15.20;;;6.90;99.90;;;;;;5090444;28;20470;-72
2022/11/18 07:35:43;;;;;;;34.85;16.65;;;6.80;99.90;;;;;;5091365;28;20112;-71
2022/11/18 07:38:08;;;;;;;32.60;16.33;;;6.80;99.90;;;;;;5093548;28;20039;-72
2022/11/18 07:40:34;;;;;;;34.70;16.42;;;6.90;99.90;;;;;;5093646;28;20047;-71
2022/11/18 07:43:00;;;;;;;36.45;16.02;;;6.80;99.90;;;;;;5093466;28;20461;-74
2022/11/18 07:45:25;;;;;;;31.10;15.82;;;6.80;99.90;;;;;;5075677;28;20360;-73
2022/11/18 07:47:51;;;;;;;38.67;16.73;;;6.80;99.90;;;;;;5094056;28;20511;-73
2022/11/18 07:50:17;;;;;;;31.02;15.38;;;6.70;99.90;;;;;;5093445;28;20131;-72
2022/11/18 07:52:43;;;;;;;36.63;16.48;;;6.80;99.90;;;;;;5093517;28;20024;-74
2022/11/18 07:55:09;;;;;;;35.05;16.08;;;6.70;99.90;;;;;;5093110;28;20088;-73
2022/11/18 07:57:34;;;;;;;34.58;16.23;;;6.60;99.90;;;;;;5075226;28;20016;-74
2022/11/18 08:00:00;;;;;;;37.92;17.08;;;6.70;99.90;;;;;;5093620;28;20024;-72
2022/11/18 08:02:26;;;;;;;33.35;15.90;;;6.50;99.90;;;;;;5093013;28;20041;-72
2022/11/18 08:04:51;;;;;;;34.80;16.40;;;6.50;99.90;;;;;;5093246;28;20060;-74
2022/11/18 08:07:17;;;;;;;36.92;16.38;;;6.60;99.90;;;;;;5075132;28;20024;-75
2022/11/18 08:09:43;;;;;;;33.95;16.67;;;6.60;99.90;;;;;;5093147;28;20032;-73
2022/11/18 08:12:08;;;;;;;34.33;16.70;;;6.50;99.90;;;;;;5093709;28;20027;-74
2022/11/18 08:14:34;;;;;;;37.67;17.88;;;6.50;99.90;;;;;;5093130;28;20032;-72
2022/11/18 08:17:00;;;;;;;37.03;17.63;;;6.60;99.90;;;;;;5093085;28;20024;-73
2022/11/18 08:19:26;;;;;;;33.78;17.75;;;6.50;99.90;;;;;;5092953;28;20040;-76
2022/11/18 08:21:51;;;;;;;35.70;16.65;;;6.50;99.90;;;;;;5093008;28;20448;-71
2022/11/18 08:24:17;;;;;;;35.35;16.92;;;6.50;99.90;;;;;;5092980;28;20046;-72
2022/11/18 08:26:43;;;;;;;35.67;16.40;;;6.60;99.90;;;;;;5092823;28;20033;-74
2022/11/18 08:29:08;;;;;;;38.78;16.80;;;6.50;99.90;;;;;;5074885;28;20038;-73
2022/11/18 08:31:34;;;;;;;37.40;16.85;;;6.40;99.90;;;;;;5092884;28;20119;-74
2022/11/18 08:34:03;;;;;;;36.00;16.92;;;6.50;99.90;;;;;;5092661;28;20424;-74
2022/11/18 08:36:31;;;;;;;32.72;15.95;;;6.40;99.90;;;;;;5092863;28;20024;-73
2022/11/18 08:38:59;;;;;;;30.42;15.98;;;6.40;99.90;;;;;;5075765;28;20039;-73
2022/11/18 08:41:28;;;;;;;32.15;15.65;;;6.40;99.90;;;;;;5093261;28;20104;-72
2022/11/18 08:43:54;;;;;;;36.78;16.10;;;6.30;99.90;;;;;;5092814;28;20036;-72
2022/11/18 08:46:19;;;;;;;29.52;13.90;;;6.30;99.90;;;;;;5092785;28;20053;-73
2022/11/18 08:48:45;;;;;;;33.45;15.98;;;6.40;99.90;;;;;;5092765;28;20335;-73
2022/11/18 08:51:12;;;;;;;40.17;18.40;;;6.40;99.90;;;;;;5075084;28;20057;-74
2022/11/18 08:53:38;;;;;;;36.50;18.20;;;6.50;99.90;;;;;;5074435;28;20046;-73
2022/11/18 08:56:04;;;;;;;38.38;17.35;;;6.40;99.90;;;;;;5092246;28;20025;-73
2022/11/18 08:58:30;;;;;;;39.63;18.00;;;6.40;99.90;;;;;;5092352;28;20032;-75
2022/11/18 09:00:55;;;;;;;39.70;19.20;;;6.40;99.90;;;;;;5091964;28;20028;-72
2022/11/18 09:03:22;;;;;;;37.72;18.88;;;6.40;99.90;;;;;;5092296;28;20446;-72
2022/11/18 09:05:48;;;;;;;40.03;18.65;;;6.50;99.90;;;;;;5074079;28;20051;-71
2022/11/18 09:08:14;;;;;;;41.30;19.42;;;6.40;99.90;;;;;;5092067;28;20051;-72
2022/11/18 09:10:40;;;;;;;39.42;18.95;;;6.40;99.90;;;;;;5074346;28;20028;-71
2022/11/18 09:13:06;;;;;;;39.50;19.52;;;6.30;99.90;;;;;;5073794;28;20028;-72
2022/11/18 09:15:32;;;;;;;37.63;18.35;;;6.30;99.90;;;;;;5073643;28;20032;-72
2022/11/18 09:17:57;;;;;;;39.75;18.65;;;6.20;99.90;;;;;;5092201;28;20107;-72
2022/11/18 09:20:24;;;;;;;40.28;20.60;;;6.20;99.90;;;;;;5091702;28;20028;-73
2022/11/18 09:22:49;;;;;;;36.53;18.05;;;6.10;99.90;;;;;;5091689;28;20160;-73
2022/11/18 09:25:15;;;;;;;34.33;18.15;;;6.00;99.90;;;;;;5073598;28;20049;-74
2022/11/18 09:27:41;;;;;;;39.60;19.63;;;6.10;99.90;;;;;;5091537;28;20040;-71
2022/11/18 09:30:07;;;;;;;40.65;19.25;;;6.00;99.90;;;;;;5092743;28;20094;-71
2022/11/18 09:32:33;;;;;;;40.33;19.27;;;6.00;99.90;;;;;;5091718;28;20469;-73
2022/11/18 09:34:59;;;;;;;40.38;19.25;;;6.00;99.90;;;;;;5091331;28;20029;-71
2022/11/18 09:37:24;;;;;;;42.15;20.25;;;6.00;99.90;;;;;;5091529;28;20034;-74
2022/11/18 09:39:50;;;;;;;36.90;18.77;;;6.00;99.90;;;;;;5091501;28;20024;-75
2022/11/18 09:42:34;;;;;;;37.97;18.63;;;6.10;99.90;;;;;;5091573;28;20036;-73
2022/11/18 09:45:17;;;;;;;36.33;19.52;;;6.10;99.90;;;;;;5091635;28;20040;-73
2022/11/18 09:47:42;;;;;;;35.17;17.25;;;6.10;99.90;;;;;;5091642;28;20070;-75
2022/11/18 09:50:14;;;;;;;36.42;17.92;;;6.10;99.90;;;;;;5092818;28;20378;-74
2022/11/18 09:53:02;;;;;;;33.08;16.65;;;6.00;99.90;;;;;;5092755;28;20036;-75
2022/11/18 09:55:28;;;;;;;35.47;16.98;;;6.00;99.90;;;;;;5074452;28;20120;-74
2022/11/18 09:57:57;;;;;;;32.10;15.75;;;6.00;99.90;;;;;;5073847;28;20402;-74
2022/11/18 10:00:29;;;;;;;30.70;15.57;;;6.00;99.90;;;;;;5092277;28;20015;-71
2022/11/18 10:03:00;;;;;;;29.60;14.75;;;6.10;99.90;;;;;;5092032;28;20032;-71
2022/11/18 10:05:49;;;;;;;30.17;16.05;;;6.10;99.90;;;;;;5091914;28;20075;-75
2022/11/18 10:08:26;;;;;;;29.17;14.65;;;6.00;99.90;;;;;;5091694;28;20497;-72
2022/11/18 10:11:08;;;;;;;29.42;14.68;;;6.00;99.90;;;;;;5091867;28;20032;-73
2022/11/18 10:14:14;;;;;;;28.33;14.30;;;6.00;99.90;;;;;;5091257;28;20028;-73
2022/11/18 10:16:47;;;;;;;24.17;13.23;;;6.00;99.90;;;;;;5008957;28;20314;-73
2022/11/18 10:19:16;;;;;;;26.77;13.25;;;6.00;99.90;;;;;;5091113;28;20121;-74
2022/11/18 10:21:44;;;;;;;28.80;13.68;;;6.10;99.90;;;;;;5091513;28;20020;-74
2022/11/18 10:24:25;;;;;;;25.50;13.73;;;6.00;99.90;;;;;;5074186;28;20467;-76
2022/11/18 10:26:57;;;;;;;25.77;13.60;;;6.00;99.90;;;;;;5073622;28;20119;-75
2022/11/18 10:29:23;;;;;;;24.60;13.60;;;5.90;99.90;;;;;;5073503;28;20032;-75
2022/11/18 10:31:55;;;;;;;23.13;13.43;;;5.80;99.90;;;;;;5091054;28;20036;-76
2022/11/18 10:34:20;;;;;;;23.08;12.57;;;5.90;99.90;;;;;;5091217;28;20028;-73
2022/11/18 10:37:19;;;;;;;25.83;12.02;;;5.90;99.90;;;;;;5073015;28;20028;-74
2022/11/18 10:40:21;;;;;;;23.70;12.35;;;5.80;99.90;;;;;;5090608;28;20035;-74
2022/11/18 10:42:47;;;;;;;24.65;12.77;;;5.80;99.90;;;;;;5090069;28;20044;-76
2022/11/18 10:45:30;;;;;;;22.45;12.00;;;5.80;99.90;;;;;;5090949;28;20395;-74
2022/11/18 10:48:14;;;;;;;24.63;12.60;;;5.80;99.90;;;;;;5073133;28;20037;-74
2022/11/18 10:50:50;;;;;;;24.27;12.32;;;5.80;99.90;;;;;;5073179;28;20089;-74
2022/11/18 10:53:34;;;;;;;26.83;14.10;;;5.70;99.90;;;;;;5091225;28;20358;-72
2022/11/18 10:56:06;;;;;;;23.63;13.50;;;5.80;99.90;;;;;;5091080;28;20046;-74
2022/11/18 10:58:38;;;;;;;24.38;12.13;;;5.70;99.90;;;;;;5091703;28;20039;-73
2022/11/18 11:01:22;;;;;;;23.45;13.18;;;5.70;99.90;;;;;;5073452;28;20446;-73
2022/11/18 11:04:18;;;;;;;25.85;12.38;;;5.60;99.90;;;;;;5090587;28;20029;-74
2022/11/18 11:06:44;;;;;;;24.85;13.70;;;5.60;99.90;;;;;;5090750;28;20470;-73
2022/11/18 11:09:13;;;;;;;23.35;13.10;;;5.60;99.90;;;;;;5091276;28;20095;-75
2022/11/18 11:12:03;;;;;;;25.83;13.70;;;5.70;99.90;;;;;;5094092;28;20028;-72
2022/11/18 11:14:35;;;;;;;21.65;12.30;;;5.60;99.90;;;;;;5094196;28;20111;-73
2022/11/18 11:17:18;;;;;;;25.50;13.40;;;5.50;99.90;;;;;;5094266;28;20024;-75
2022/11/18 11:20:03;;;;;;;25.55;14.30;;;5.60;99.90;;;;;;5093941;28;20055;-74
2022/11/18 11:22:29;;;;;;;28.40;13.23;;;5.60;99.90;;;;;;5076088;28;20121;-73
2022/11/18 11:24:55;;;;;;;24.77;12.82;;;5.70;99.90;;;;;;5094024;28;20051;-74
2022/11/18 11:27:42;;;;;;;28.80;13.73;;;5.70;99.90;;;;;;5094522;28;20059;-76
2022/11/18 11:30:08;;;;;;;25.35;12.73;;;5.70;99.90;;;;;;5094019;28;20067;-72
2022/11/18 11:33:19;;;;;;;26.17;14.68;;;5.70;99.90;;;;;;5093830;28;20357;-72
2022/11/18 11:36:03;;;;;;;24.75;13.32;;;5.60;99.90;;;;;;5059590;28;20043;-74
2022/11/18 11:38:57;;;;;;;24.08;12.52;;;5.70;99.90;;;;;;5093576;28;20066;-72
2022/11/18 11:41:45;;;;;;;21.80;11.80;;;5.70;99.90;;;;;;5093719;28;20105;-71
2022/11/18 11:44:30;;;;;;;23.90;12.25;;;5.60;99.90;;;;;;5075278;28;20044;-71
2022/11/18 11:49:53;;;;;;;26.90;13.75;;;5.50;99.90;;;;;;5093497;28;20435;-72
2022/11/18 11:52:47;;;;;;;23.67;12.77;;;5.50;99.90;;;;;;5093651;28;20044;-72
2022/11/18 11:55:50;;;;;;;27.67;13.05;;;5.50;99.90;;;;;;5075527;28;20067;-73
2022/11/18 11:58:15;;;;;;;24.33;13.27;;;5.50;99.90;;;;;;5075679;28;20462;-74
2022/11/18 12:00:50;;;;;;;24.98;13.60;;;5.50;99.90;;;;;;5093269;28;20028;-74
2022/11/18 12:03:31;;;;;;;26.02;13.98;;;5.50;99.90;;;;;;5075810;28;20104;-74
2022/11/18 12:05:56;;;;;;;25.63;14.07;;;5.60;99.90;;;;;;5093356;28;20048;-74
2022/11/18 12:08:27;;;;;;;29.00;14.70;;;5.50;99.90;;;;;;5075445;28;20034;-75
2022/11/18 12:10:58;;;;;;;29.85;14.90;;;5.40;99.90;;;;;;5075674;28;20039;-74
2022/11/18 12:13:53;;;;;;;25.77;13.75;;;5.50;99.90;;;;;;5093353;28;20024;-75
2022/11/18 12:16:49;;;;;;;26.17;14.20;;;5.40;99.90;;;;;;5093736;28;20034;-76
2022/11/18 12:19:20;;;;;;;32.30;15.02;;;5.40;99.90;;;;;;5076149;28;20020;-76
2022/11/18 12:21:45;;;;;;;26.95;13.73;;;5.40;99.90;;;;;;5094042;28;20059;-75
2022/11/18 12:24:26;;;;;;;30.55;15.60;;;5.50;99.90;;;;;;5077559;28;20063;-75
2022/11/18 12:26:52;;;;;;;27.40;14.00;;;5.30;99.90;;;;;;5076712;28;20344;-75
2022/11/18 12:29:17;;;;;;;26.80;12.73;;;5.40;99.90;;;;;;5093939;28;20119;-74
2022/11/18 12:32:25;;;;;;;23.63;13.07;;;5.30;99.90;;;;;;5093653;28;20107;-76
2022/11/18 12:35:21;;;;;;;25.50;12.70;;;5.30;99.90;;;;;;5075683;28;20489;-73
2022/11/18 12:37:52;;;;;;;27.95;14.73;;;5.30;99.90;;;;;;5092810;28;20055;-75
2022/11/18 12:40:43;;;;;;;24.75;13.40;;;5.30;99.90;;;;;;5093665;28;20177;-74
2022/11/18 12:46:09;;;;;;;30.02;14.35;;;5.30;99.90;;;;;;5073763;28;20421;-75
2022/11/18 12:49:18;;;;;;;25.20;13.32;;;5.20;99.90;;;;;;5073259;28;20020;-73
2022/11/18 12:51:45;;;;;;;22.50;11.75;;;5.20;99.90;;;;;;5071858;28;20017;-74
2022/11/18 12:54:36;;;;;;;24.50;13.95;;;5.20;99.80;;;;;;5072938;28;20016;-75
2022/11/18 12:57:23;;;;;;;31.17;15.63;;;5.10;99.90;;;;;;5063244;28;20060;-74
2022/11/18 12:59:50;;;;;;;27.98;14.75;;;5.30;99.90;;;;;;5071093;28;20051;-77
2022/11/18 13:02:31;;;;;;;25.52;13.23;;;5.30;99.90;;;;;;5071180;28;20033;-73
2022/11/18 13:05:19;;;;;;;25.75;13.30;;;5.30;99.80;;;;;;5070930;28;20481;-74
2022/11/18 13:10:44;;;;;;;26.52;14.10;;;5.30;99.70;;;;;;5071934;28;20052;-74
2022/11/18 13:13:30;;;;;;;25.40;13.98;;;5.10;99.40;;;;;;5071828;28;20377;-73
2022/11/18 13:18:50;;;;;;;23.67;12.95;;;5.00;99.60;;;;;;5071748;28;20048;-75
2022/11/18 13:24:10;;;;;;;25.27;13.57;;;5.10;99.60;;;;;;5071756;28;20047;-76
2022/11/18 13:26:39;;;;;;;26.92;14.55;;;5.00;99.30;;;;;;5071705;28;20234;-76
2022/11/18 13:29:08;;;;;;;26.17;13.93;;;5.00;99.50;;;;;;5067122;28;20507;-73
2022/11/18 13:31:51;;;;;;;26.30;14.02;;;5.10;99.70;;;;;;5065091;28;20374;-76
2022/11/18 13:34:24;;;;;;;25.92;13.38;;;5.10;99.40;;;;;;5070444;28;20028;-75
2022/11/18 13:36:52;;;;;;;25.98;14.23;;;5.10;99.60;;;;;;5071040;28;20036;-74